Time;durP1;ratioP1;P1;durP2;ratioP2;P2;SDS_P1;SDS_P2;PMS_P1;PMS_P2;Temp;Humidity;BMP_temperature;BMP_pressure;BME280_temperature;BME280_humidity;BME280_pressure;Samples;Min_cycle;Max_cycle;Signal;HPM_P1;HPM_P2
2022/11/01 00:00:25;;;;;;;;;;;24.50;74.60;;;;;;5054160;28;19913;-76
2022/11/01 00:02:52;;;;;;;;;;;24.20;72.80;;;;;;5054849;28;19908;-74
2022/11/01 00:05:18;;;;;;;;;;;23.60;73.00;;;;;;5053071;28;20371;-75
2022/11/01 00:07:45;;;;;;;;;;;23.60;72.30;;;;;;5054596;28;19958;-74
2022/11/01 00:10:12;;;;;;;;;;;24.10;73.50;;;;;;5053333;28;20007;-77
2022/11/01 00:12:38;;;;;;;;;;;24.10;72.10;;;;;;5054338;28;19916;-76
2022/11/01 00:15:05;;;;;;;;;;;24.30;72.60;;;;;;5041244;28;20323;-71
2022/11/01 00:17:32;;;;;;;;;;;24.30;73.30;;;;;;5048185;28;20054;-76
2022/11/01 00:19:58;;;;;;;;;;;24.00;73.50;;;;;;5051447;28;20283;-76
2022/11/01 00:22:25;;;;;;;;;;;23.50;72.20;;;;;;5054110;28;19920;-75
2022/11/01 00:24:52;;;;;;;;;;;23.10;72.60;;;;;;5054050;28;19913;-75
2022/11/01 00:27:19;;;;;;;;;;;23.10;74.10;;;;;;5053336;28;20078;-75
2022/11/01 00:29:45;;;;;;;;;;;23.10;74.00;;;;;;5052172;28;19912;-76
2022/11/01 00:32:12;;;;;;;;;;;22.90;72.80;;;;;;5053547;28;20445;-76
2022/11/01 00:34:38;;;;;;;;;;;23.10;73.20;;;;;;5053250;28;20323;-73
2022/11/01 00:37:05;;;;;;;;;;;23.20;73.70;;;;;;5054331;28;19963;-78
2022/11/01 00:39:32;;;;;;;;;;;23.40;73.40;;;;;;5045444;28;19963;-74
2022/11/01 00:41:58;;;;;;;;;;;23.80;74.40;;;;;;5034030;28;19920;-74
2022/11/01 00:44:25;;;;;;;;;;;24.40;73.30;;;;;;5035377;28;19945;-77
2022/11/01 00:46:52;;;;;;;;;;;24.10;71.80;;;;;;5053147;28;19916;-74
2022/11/01 00:49:18;;;;;;;;;;;24.20;72.00;;;;;;5046781;28;20439;-75
2022/11/01 00:51:45;;;;;;;;;;;23.80;72.10;;;;;;5034099;28;19952;-74
2022/11/01 00:54:12;;;;;;;;;;;23.80;72.80;;;;;;5034845;28;19921;-74
2022/11/01 00:56:38;;;;;;;;;;;23.30;71.70;;;;;;5033920;28;20366;-76
2022/11/01 00:59:05;;;;;;;;;;;23.10;71.60;;;;;;5050668;28;19967;-75
2022/11/01 01:01:32;;;;;;;;;;;23.10;73.30;;;;;;5052645;28;19913;-74
2022/11/01 01:03:59;;;;;;;;;;;22.80;73.90;;;;;;5049187;28;19928;-73
2022/11/01 01:06:25;;;;;;;;;;;22.90;75.00;;;;;;5033788;28;19959;-75
2022/11/01 01:08:52;;;;;;;;;;;23.50;72.90;;;;;;5036721;28;19912;-73
2022/11/01 01:11:18;;;;;;;;;;;23.70;72.40;;;;;;5053533;28;19966;-74
2022/11/01 01:13:45;;;;;;;;;;;23.90;73.70;;;;;;5052249;28;20379;-74
2022/11/01 01:16:12;;;;;;;;;;;24.10;73.10;;;;;;5053538;28;19909;-75
2022/11/01 01:18:39;;;;;;;;;;;24.50;73.20;;;;;;5052676;28;20250;-74
2022/11/01 01:21:06;;;;;;;;;;;24.50;72.70;;;;;;5053304;28;19999;-74
2022/11/01 01:23:33;;;;;;;;;;;24.30;70.90;;;;;;5052415;28;20248;-76
2022/11/01 01:25:59;;;;;;;;;;;24.00;72.40;;;;;;5033051;28;20008;-77
2022/11/01 01:28:26;;;;;;;;;;;23.90;72.70;;;;;;5033259;28;19909;-76
2022/11/01 01:30:53;;;;;;;;;;;24.40;73.50;;;;;;5052857;28;19909;-75
2022/11/01 01:33:19;;;;;;;;;;;25.20;74.60;;;;;;5053392;28;20408;-75
2022/11/01 01:35:46;;;;;;;;;;;25.30;72.50;;;;;;5054579;28;19912;-74
2022/11/01 01:38:13;;;;;;;;;;;25.10;67.70;;;;;;5054978;28;19920;-79
2022/11/01 01:40:39;;;;;;;;;;;24.90;66.50;;;;;;5050293;28;19913;-78
2022/11/01 01:43:09;;;;;;;;;;;24.90;67.50;;;;;;5033551;28;20376;-75
2022/11/01 01:45:37;;;;;;;;;;;25.10;68.90;;;;;;5050218;28;19924;-74
2022/11/01 01:48:07;;;;;;;;;;;25.50;69.00;;;;;;5033312;28;19920;-75
2022/11/01 01:50:36;;;;;;;;;;;25.70;68.00;;;;;;5034147;28;20396;-74
2022/11/01 01:53:07;;;;;;;;;;;25.90;68.10;;;;;;5041502;28;19921;-79
2022/11/01 01:55:34;;;;;;;;;;;25.80;67.00;;;;;;5051398;28;19920;-75
2022/11/01 01:58:02;;;;;;;;;;;25.40;66.50;;;;;;5052426;28;20438;-76
2022/11/01 02:00:28;;;;;;;;;;;25.00;67.60;;;;;;5049914;28;19921;-75
2022/11/01 02:02:55;;;;;;;;;;;25.10;67.50;;;;;;5046576;28;19916;-73
2022/11/01 02:05:22;;;;;;;;;;;25.10;67.70;;;;;;5036892;28;19940;-76
2022/11/01 02:07:49;;;;;;;;;;;25.40;68.90;;;;;;5032300;28;20291;-77
2022/11/01 02:10:16;;;;;;;;;;;25.20;68.60;;;;;;5047228;28;20012;-73
2022/11/01 02:12:46;;;;;;;;;;;25.10;68.80;;;;;;5050587;28;19951;-74
2022/11/01 02:15:14;;;;;;;;;;;25.10;69.50;;;;;;5038026;28;19924;-75
2022/11/01 02:18:04;;;;;;;;;;;25.10;69.30;;;;;;5049651;28;20340;-73
2022/11/01 02:20:39;;;;;;;;;;;25.20;69.00;;;;;;5040909;28;19913;-76
2022/11/01 02:23:25;;;;;;;;;;;25.00;71.00;;;;;;5052587;28;19913;-76
2022/11/01 02:26:15;;;;;;;;;;;25.10;70.00;;;;;;5048013;28;19925;-73
2022/11/01 02:28:51;;;;;;;;;;;25.30;69.90;;;;;;5049294;28;20382;-75
2022/11/01 02:31:33;;;;;;;;;;;25.00;69.90;;;;;;5052310;28;19920;-76
2022/11/01 02:34:09;;;;;;;;;;;25.00;68.00;;;;;;5055128;28;19921;-76
2022/11/01 02:36:36;;;;;;;;;;;25.30;68.30;;;;;;5048829;28;19956;-75
2022/11/01 02:39:07;;;;;;;;;;;25.50;70.40;;;;;;5051868;28;19920;-74
2022/11/01 02:41:35;;;;;;;;;;;25.10;70.60;;;;;;5051181;28;20386;-74
2022/11/01 02:44:04;;;;;;;;;;;24.80;69.50;;;;;;5051218;28;19959;-75
2022/11/01 02:49:18;;;;;;;;;;;24.80;70.00;;;;;;5051262;28;20295;-76
2022/11/01 02:51:45;;;;;;;;;;;24.90;70.20;;;;;;5036614;28;19974;-74
2022/11/01 02:54:23;;;;;;;;;;;24.80;70.90;;;;;;5038040;28;19920;-75
2022/11/01 02:56:50;;;;;;;;;;;24.30;70.90;;;;;;5040822;28;20058;-76
2022/11/01 02:59:27;;;;;;;;;;;24.00;71.50;;;;;;5040010;28;20005;-76
2022/11/01 03:02:00;;;;;;;;;;;23.80;71.00;;;;;;5041919;28;20319;-76
2022/11/01 03:04:26;;;;;;;;;;;24.00;72.10;;;;;;5042835;28;19917;-75
2022/11/01 03:06:56;;;;;;;;;;;24.30;72.10;;;;;;5043759;28;19996;-75
2022/11/01 03:09:23;;;;;;;;;;;24.30;71.70;;;;;;5049982;28;19916;-74
2022/11/01 03:11:59;;;;;;;;;;;24.50;72.10;;;;;;5034610;28;19935;-73
2022/11/01 03:14:28;;;;;;;;;;;24.40;71.20;;;;;;5039745;28;19924;-76
2022/11/01 03:17:03;;;;;;;;;;;24.40;71.10;;;;;;5051774;28;19909;-75
2022/11/01 03:19:48;;;;;;;;;;;24.60;72.20;;;;;;5047034;28;20263;-76
2022/11/01 03:22:24;;;;;;;;;;;25.00;70.50;;;;;;5048577;28;19920;-76
2022/11/01 03:28:07;;;;;;;;;;;25.70;70.80;;;;;;5050441;28;19928;-75
2022/11/01 03:30:40;;;;;;;;;;;25.80;71.10;;;;;;5050700;28;19913;-74
2022/11/01 03:33:17;;;;;;;;;;;26.10;71.70;;;;;;5051636;28;19921;-74
2022/11/01 03:35:51;;;;;;;;;;;26.10;71.50;;;;;;5050518;28;19913;-75
2022/11/01 03:38:28;;;;;;;;;;;26.10;72.00;;;;;;5051565;28;20399;-75
2022/11/01 03:41:04;;;;;;;;;;;25.90;71.60;;;;;;5056303;28;19959;-73
2022/11/01 03:43:37;;;;;;;;;;;26.00;70.50;;;;;;5053993;28;19920;-76
2022/11/01 03:46:18;;;;;;;;;;;25.80;70.10;;;;;;5054077;28;19913;-75
2022/11/01 03:48:53;;;;;;;;;;;25.80;69.60;;;;;;5054267;28;20417;-77
2022/11/01 03:51:20;;;;;;;;;;;25.40;68.70;;;;;;5055221;28;19909;-75
2022/11/01 03:53:46;;;;;;;;;;;25.00;69.10;;;;;;5053673;28;21581;-76
2022/11/01 03:56:13;;;;;;;;;;;24.90;68.60;;;;;;5055040;28;19963;-75
2022/11/01 03:58:44;;;;;;;;;;;24.70;70.70;;;;;;5053046;28;19919;-76
2022/11/01 04:01:11;;;;;;;;;;;25.00;69.10;;;;;;5054796;28;19948;-77
2022/11/01 04:03:38;;;;;;;;;;;25.20;69.10;;;;;;5054004;28;20568;-76
2022/11/01 04:06:05;;;;;;;;;;;25.40;69.70;;;;;;5054484;28;19920;-77
2022/11/01 04:08:32;;;;;;;;;;;25.50;70.00;;;;;;5054192;28;19916;-75
2022/11/01 04:11:00;;;;;;;;;;;25.70;68.70;;;;;;5054235;28;19924;-78
2022/11/01 04:13:26;;;;;;;;;;;25.70;68.50;;;;;;5054231;28;20015;-76
2022/11/01 04:21:24;;;;;;;;;;;26.10;68.30;;;;;;5034768;28;19982;-78
2022/11/01 04:23:51;;;;;;;;;;;25.70;68.40;;;;;;5036641;28;20363;-77
2022/11/01 04:26:18;;;;;;;;;;;25.20;70.30;;;;;;5053271;28;19947;-77
2022/11/01 04:28:55;;;;;;;;;;;24.50;70.40;;;;;;5054052;28;20011;-77
2022/11/01 04:31:26;;;;;;;;;;;24.10;72.30;;;;;;5054331;28;20386;-77
2022/11/01 04:33:54;;;;;;;;;;;23.80;72.10;;;;;;5049726;28;19920;-76
2022/11/01 04:36:21;;;;;;;;;;;23.30;73.10;;;;;;5034382;28;19948;-76
2022/11/01 04:38:49;;;;;;;;;;;22.90;74.10;;;;;;5035299;28;20794;-75
2022/11/01 04:41:17;;;;;;;;;;;22.60;75.00;;;;;;5034425;28;19921;-76
2022/11/01 04:43:44;;;;;;;;;;;22.30;75.90;;;;;;5042775;28;19909;-74
2022/11/01 04:46:10;;;;;;;;;;;22.00;80.80;;;;;;5034164;28;19928;-75
2022/11/01 04:48:37;;;;;;;;;;;21.20;86.90;;;;;;5039344;28;19920;-72
2022/11/01 04:51:04;;;;;;;;;;;20.40;90.20;;;;;;5054385;28;20367;-70
2022/11/01 04:53:30;;;;;;;;;;;19.80;92.00;;;;;;5048809;28;19928;-69
2022/11/01 04:55:57;;;;;;;;;;;19.60;92.50;;;;;;5053463;28;19916;-70
2022/11/01 04:58:24;;;;;;;;;;;19.60;92.50;;;;;;5053801;28;19916;-70
2022/11/01 05:00:50;;;;;;;;;;;19.60;90.50;;;;;;5053531;28;19916;-71
2022/11/01 05:03:17;;;;;;;;;;;19.60;91.10;;;;;;5053751;28;20007;-69
2022/11/01 05:05:44;;;;;;;;;;;19.70;91.10;;;;;;5052614;28;19913;-69
2022/11/01 05:08:12;;;;;;;;;;;19.70;90.40;;;;;;5035669;28;19913;-70
2022/11/01 05:10:42;;;;;;;;;;;19.60;90.40;;;;;;5036338;28;20003;-71
2022/11/01 05:13:10;;;;;;;;;;;19.50;90.10;;;;;;5050258;28;19950;-70
2022/11/01 05:15:37;;;;;;;;;;;19.50;90.10;;;;;;5052741;28;19917;-69
2022/11/01 05:18:04;;;;;;;;;;;19.40;90.00;;;;;;5052995;28;19909;-69
2022/11/01 05:20:30;;;;;;;;;;;19.20;90.50;;;;;;5037411;28;19913;-69
2022/11/01 05:22:58;;;;;;;;;;;19.30;90.80;;;;;;5033179;28;19948;-69
2022/11/01 05:25:25;;;;;;;;;;;19.60;91.00;;;;;;5047987;28;19913;-73
2022/11/01 05:27:57;;;;;;;;;;;20.00;91.70;;;;;;5052961;28;19917;-70
2022/11/01 05:30:23;;;;;;;;;;;20.20;91.30;;;;;;5052403;28;19912;-69
2022/11/01 05:32:54;;;;;;;;;;;20.20;91.40;;;;;;5053184;28;20268;-70
2022/11/01 05:35:21;;;;;;;;;;;20.30;90.80;;;;;;5052211;28;19913;-70
2022/11/01 05:37:48;;;;;;;;;;;20.20;90.90;;;;;;5055349;28;19913;-70
2022/11/01 05:40:14;;;;;;;;;;;20.10;90.80;;;;;;5039291;28;20318;-70
2022/11/01 05:42:41;;;;;;;;;;;20.00;90.70;;;;;;5033211;28;19952;-70
2022/11/01 05:45:09;;;;;;;;;;;19.80;90.50;;;;;;5046006;28;19931;-70
2022/11/01 05:47:39;;;;;;;;;;;19.50;90.20;;;;;;5052996;28;19913;-70
2022/11/01 05:50:06;;;;;;;;;;;19.50;90.80;;;;;;5039928;28;19917;-70
2022/11/01 05:52:33;;;;;;;;;;;19.40;90.90;;;;;;5048318;28;20382;-69
2022/11/01 05:55:00;;;;;;;;;;;19.30;90.40;;;;;;5050819;28;20276;-72
2022/11/01 05:57:26;;;;;;;;;;;19.20;90.70;;;;;;5052631;28;20363;-69
2022/11/01 05:59:53;;;;;;;;;;;19.10;90.70;;;;;;5050409;28;19916;-71
2022/11/01 06:02:20;;;;;;;;;;;19.10;90.20;;;;;;5032858;28;20067;-71
2022/11/01 06:04:46;;;;;;;;;;;19.20;90.30;;;;;;5042140;28;19913;-71
2022/11/01 06:07:13;;;;;;;;;;;19.60;90.70;;;;;;5052504;28;19919;-71
2022/11/01 06:09:40;;;;;;;;;;;20.00;90.00;;;;;;5050516;28;20469;-70
2022/11/01 06:12:06;;;;;;;;;;;20.30;89.10;;;;;;5052359;28;19913;-70
2022/11/01 06:14:33;;;;;;;;;;;20.50;89.20;;;;;;5043963;28;19968;-70
2022/11/01 06:17:00;;;;;;;;;;;20.70;87.70;;;;;;5032532;28;19920;-70
2022/11/01 06:19:26;;;;;;;;;;;20.90;87.80;;;;;;5039875;28;20386;-69
2022/11/01 06:21:53;;;;;;;;;;;21.00;88.40;;;;;;5052103;28;19996;-69
2022/11/01 06:24:20;;;;;;;;;;;21.00;86.00;;;;;;5056377;28;19908;-69
2022/11/01 06:26:46;;;;;;;;;;;21.10;87.20;;;;;;5052698;28;19950;-70
2022/11/01 06:29:13;;;;;;;;;;;21.20;86.20;;;;;;5051382;28;19912;-70
2022/11/01 06:31:43;;;;;;;;;;;21.30;87.30;;;;;;5051407;28;20221;-69
2022/11/01 06:34:10;;;;;;;;;;;21.40;86.60;;;;;;5054648;28;20351;-69
2022/11/01 06:36:36;;;;;;;;;;;21.40;83.30;;;;;;5052136;28;20430;-69
2022/11/01 06:39:03;;;;;;;;;;;21.30;82.10;;;;;;5047980;28;19914;-69
2022/11/01 06:41:30;;;;;;;;;;;21.10;82.40;;;;;;5032137;28;19948;-71
2022/11/01 06:43:56;;;;;;;;;;;20.90;82.60;;;;;;5050684;28;19913;-69
2022/11/01 06:46:23;;;;;;;;;;;20.70;82.20;;;;;;5051954;28;19936;-69
2022/11/01 06:48:50;;;;;;;;;;;20.60;82.70;;;;;;5050056;28;19920;-70
2022/11/01 06:51:16;;;;;;;;;;;20.40;82.60;;;;;;5032242;28;20371;-70
2022/11/01 06:53:46;;;;;;;;;;;20.30;83.50;;;;;;5037943;28;19921;-70
2022/11/01 06:56:12;;;;;;;;;;;20.30;83.60;;;;;;5034782;28;20276;-69
2022/11/01 06:58:39;;;;;;;;;;;20.00;84.10;;;;;;5050894;28;19913;-71
2022/11/01 07:01:06;;;;;;;;;;;19.90;84.20;;;;;;5031949;28;19943;-68
2022/11/01 07:03:32;;;;;;;;;;;19.80;84.90;;;;;;5032159;28;19988;-70
2022/11/01 07:05:59;;;;;;;;;;;19.60;85.10;;;;;;5050938;28;19921;-69
2022/11/01 07:08:26;;;;;;;;;;;19.50;85.20;;;;;;5050977;28;19912;-70
2022/11/01 07:10:53;;;;;;;;;;;19.50;84.50;;;;;;5033223;28;20325;-69
2022/11/01 07:13:19;;;;;;;;;;;19.60;85.20;;;;;;5043248;28;19925;-72
2022/11/01 07:15:46;;;;;;;;;;;19.80;85.80;;;;;;5038293;28;20387;-70
2022/11/01 07:18:13;;;;;;;;;;;19.90;84.50;;;;;;5055820;28;19990;-70
2022/11/01 07:20:42;;;;;;;;;;;20.20;80.80;;;;;;5038449;28;19994;-70
2022/11/01 07:23:12;;;;;;;;;;;20.30;78.40;;;;;;5037533;28;20047;-69
2022/11/01 07:25:40;;;;;;;;;;;20.30;77.50;;;;;;5053846;28;19932;-69
2022/11/01 07:28:07;;;;;;;;;;;20.30;77.60;;;;;;5054481;28;19935;-68
2022/11/01 07:30:34;;;;;;;;;;;20.30;77.10;;;;;;5052953;28;19920;-69
2022/11/01 07:33:02;;;;;;;;;;;20.30;77.60;;;;;;5055410;28;19932;-69
2022/11/01 07:35:29;;;;;;;;;;;20.30;77.30;;;;;;5054529;28;20023;-71
2022/11/01 07:37:57;;;;;;;;;;;20.40;77.60;;;;;;5055000;28;19920;-69
2022/11/01 07:40:26;;;;;;;;;;;20.30;77.10;;;;;;5057830;28;19913;-68
2022/11/01 07:42:54;;;;;;;;;;;20.10;77.10;;;;;;5048577;28;19967;-70
2022/11/01 07:45:21;;;;;;;;;;;19.90;77.90;;;;;;5050152;28;19924;-76
2022/11/01 07:47:48;;;;;;;;;;;19.80;78.90;;;;;;5054967;28;19908;-68
2022/11/01 07:50:15;;;;;;;;;;;19.70;78.40;;;;;;5054061;28;19913;-69
2022/11/01 07:52:41;;;;;;;;;;;19.60;78.80;;;;;;5055045;28;19913;-73
2022/11/01 07:55:08;;;;;;;;;;;19.50;78.90;;;;;;5053724;28;19923;-70
2022/11/01 07:57:39;;;;;;;;;;;19.50;80.80;;;;;;5055246;28;19915;-72
2022/11/01 08:00:06;;;;;;;;;;;19.30;81.30;;;;;;5053782;28;19990;-69
2022/11/01 08:02:33;;;;;;;;;;;19.00;85.90;;;;;;5055009;28;19915;-69
2022/11/01 08:04:59;;;;;;;;;;;18.50;88.30;;;;;;5053947;28;19913;-70
2022/11/01 08:07:27;;;;;;;;;;;18.10;90.10;;;;;;5049348;28;19913;-71
2022/11/01 08:09:53;;;;;;;;;;;17.80;90.60;;;;;;5035786;28;19914;-71
2022/11/01 08:12:20;;;;;;;;;;;17.50;90.90;;;;;;5034972;28;20347;-72
2022/11/01 08:14:47;;;;;;;;;;;17.20;91.10;;;;;;5045187;28;20363;-71
2022/11/01 08:17:13;;;;;;;;;;;17.10;91.50;;;;;;5053931;28;20287;-72
2022/11/01 08:19:40;;;;;;;;;;;17.00;91.50;;;;;;5053703;28;19913;-76
2022/11/01 08:22:07;;;;;;;;;;;17.00;91.30;;;;;;5054340;28;19954;-71
2022/11/01 08:24:33;;;;;;;;;;;16.90;91.70;;;;;;5053394;28;19924;-70
2022/11/01 08:27:02;;;;;;;;;;;16.80;91.40;;;;;;5052220;28;19921;-70
2022/11/01 08:29:28;;;;;;;;;;;16.70;91.50;;;;;;5045803;28;19975;-71
2022/11/01 08:31:55;;;;;;;;;;;16.70;91.80;;;;;;5033499;28;20022;-71
2022/11/01 08:34:22;;;;;;;;;;;16.60;92.10;;;;;;5053212;28;19921;-70
2022/11/01 08:36:48;;;;;;;;;;;16.50;92.20;;;;;;5053979;28;19936;-73
2022/11/01 08:39:15;;;;;;;;;;;16.40;92.20;;;;;;5053746;28;19919;-70
2022/11/01 08:41:42;;;;;;;;;;;16.40;92.50;;;;;;5054158;28;19968;-70
2022/11/01 08:44:08;;;;;;;;;;;16.30;92.40;;;;;;5052966;28;19917;-70
2022/11/01 08:46:35;;;;;;;;;;;16.30;92.50;;;;;;5054225;28;20355;-70
2022/11/01 08:49:02;;;;;;;;;;;16.30;92.30;;;;;;5050257;28;20356;-70
2022/11/01 08:51:28;;;;;;;;;;;16.30;92.30;;;;;;5045595;28;19938;-68
2022/11/01 08:53:56;;;;;;;;;;;16.20;92.30;;;;;;5053463;28;19986;-69
2022/11/01 08:56:23;;;;;;;;;;;16.20;92.20;;;;;;5054076;28;19962;-70
2022/11/01 08:58:51;;;;;;;;;;;16.20;92.60;;;;;;5052117;28;19927;-70
2022/11/01 09:01:18;;;;;;;;;;;16.10;92.50;;;;;;5053054;28;19913;-69
2022/11/01 09:03:45;;;;;;;;;;;16.10;92.70;;;;;;5052319;28;19912;-71
2022/11/01 09:06:12;;;;;;;;;;;16.10;92.60;;;;;;5053369;28;20398;-69
2022/11/01 09:08:38;;;;;;;;;;;16.10;93.00;;;;;;5051958;28;19974;-70
2022/11/01 09:11:05;;;;;;;;;;;16.10;93.00;;;;;;5053264;28;19913;-70
2022/11/01 09:13:35;;;;;;;;;;;16.10;92.80;;;;;;5049691;28;19916;-69
2022/11/01 09:16:06;;;;;;;;;;;16.10;93.10;;;;;;5052347;28;20373;-69
2022/11/01 09:18:33;;;;;;;;;;;16.10;93.00;;;;;;5052611;28;19909;-69
2022/11/01 09:20:59;;;;;;;;;;;16.20;93.20;;;;;;5052276;28;20367;-70
2022/11/01 09:23:26;;;;;;;;;;;16.20;93.20;;;;;;5052606;28;20342;-71
2022/11/01 09:25:53;;;;;;;;;;;16.20;93.10;;;;;;5052003;28;19966;-76
2022/11/01 09:28:19;;;;;;;;;;;16.20;93.20;;;;;;5052791;28;20052;-77
2022/11/01 09:30:46;;;;;;;;;;;16.20;92.60;;;;;;5034590;28;20391;-75
2022/11/01 09:33:13;;;;;;;;;;;16.20;92.40;;;;;;5051729;28;19916;-72
2022/11/01 09:35:39;;;;;;;;;;;16.30;92.60;;;;;;5051659;28;19935;-75
2022/11/01 09:38:06;;;;;;;;;;;16.30;92.70;;;;;;5053905;28;19916;-77
2022/11/01 09:40:43;;;;;;;;;;;16.30;92.80;;;;;;5051774;28;19917;-77
2022/11/01 09:43:12;;;;;;;;;;;16.30;92.60;;;;;;5052381;28;20051;-77
2022/11/01 09:45:39;;;;;;;;;;;16.30;92.90;;;;;;5035397;28;19970;-76
2022/11/01 09:48:06;;;;;;;;;;;16.30;93.00;;;;;;5048573;28;19920;-76
2022/11/01 09:50:36;;;;;;;;;;;16.20;93.10;;;;;;5051392;28;20010;-75
2022/11/01 09:53:03;;;;;;;;;;;16.20;93.20;;;;;;5051465;28;20063;-77
2022/11/01 09:55:48;;;;;;;;;;;16.10;93.20;;;;;;5051346;28;19939;-76
2022/11/01 09:58:33;;;;;;;;;;;16.10;93.30;;;;;;5049197;28;19912;-77
2022/11/01 10:01:07;;;;;;;;;;;16.00;93.10;;;;;;5048446;28;20016;-78
2022/11/01 10:03:43;;;;;;;;;;;16.00;93.10;;;;;;5040052;28;20398;-75
2022/11/01 10:06:14;;;;;;;;;;;16.00;93.30;;;;;;5036048;28;19948;-77
2022/11/01 10:09:00;;;;;;;;;;;15.90;93.60;;;;;;5045043;28;19921;-76
2022/11/01 10:11:43;;;;;;;;;;;15.90;93.60;;;;;;5045697;28;19917;-77
2022/11/01 10:14:21;;;;;;;;;;;15.90;93.60;;;;;;5050653;28;19971;-76
2022/11/01 10:16:59;;;;;;;;;;;15.80;93.80;;;;;;5052069;28;20422;-75
2022/11/01 10:19:31;;;;;;;;;;;15.80;94.00;;;;;;5050866;28;19913;-75
2022/11/01 10:22:02;;;;;;;;;;;15.70;93.70;;;;;;5051373;28;19909;-76
2022/11/01 10:24:35;;;;;;;;;;;15.70;94.00;;;;;;5050890;28;19917;-75
2022/11/01 10:27:07;;;;;;;;;;;15.60;94.00;;;;;;5048763;28;19963;-75
2022/11/01 10:29:42;;;;;;;;;;;15.70;94.10;;;;;;5046964;28;19912;-76
2022/11/01 10:32:15;;;;;;;;;;;15.70;94.20;;;;;;5036175;28;19916;-79
2022/11/01 10:34:42;;;;;;;;;;;15.70;94.20;;;;;;5042566;28;20616;-78
2022/11/01 10:37:22;;;;;;;;;;;15.60;94.10;;;;;;5045028;28;19924;-75
2022/11/01 10:39:57;;;;;;;;;;;15.60;93.70;;;;;;5042364;28;19939;-78
2022/11/01 10:42:27;;;;;;;;;;;15.50;93.60;;;;;;5051044;28;19913;-76
2022/11/01 10:44:55;;;;;;;;;;;15.40;92.70;;;;;;5040383;28;19917;-77
2022/11/01 10:47:23;;;;;;;;;;;15.30;92.70;;;;;;5031824;28;20322;-78
2022/11/01 10:50:13;;;;;;;;;;;15.20;92.00;;;;;;5043383;28;20330;-74
2022/11/01 10:52:46;;;;;;;;;;;15.10;92.20;;;;;;5055551;28;19909;-77
2022/11/01 10:55:33;;;;;;;;;;;15.00;91.50;;;;;;5054776;28;19967;-77
2022/11/01 10:58:05;;;;;;;;;;;14.90;91.80;;;;;;5053091;28;19960;-78
2022/11/01 11:00:36;;;;;;;;;;;14.90;91.80;;;;;;5041541;28;19928;-74
2022/11/01 11:03:12;;;;;;;;;;;14.80;91.50;;;;;;5055294;28;19920;-78
2022/11/01 11:05:39;;;;;;;;;;;14.70;91.50;;;;;;5053773;28;20370;-74
2022/11/01 11:08:13;;;;;;;;;;;14.70;91.10;;;;;;5054196;28;19913;-78
2022/11/01 11:10:43;;;;;;;;;;;14.60;91.00;;;;;;5054524;28;20298;-76
2022/11/01 11:13:12;;;;;;;;;;;14.60;91.40;;;;;;5054746;28;19944;-77
2022/11/01 11:15:45;;;;;;;;;;;14.50;91.50;;;;;;5039378;28;19964;-76
2022/11/01 11:18:28;;;;;;;;;;;14.50;91.60;;;;;;5055748;28;20000;-76
2022/11/01 11:20:57;;;;;;;;;;;14.50;91.60;;;;;;5035370;28;19913;-76
2022/11/01 11:23:25;;;;;;;;;;;14.40;92.00;;;;;;5034080;28;19913;-77
2022/11/01 11:25:52;;;;;;;;;;;14.40;92.00;;;;;;5053256;28;20371;-71
2022/11/01 11:28:25;;;;;;;;;;;14.30;91.80;;;;;;5053006;28;19921;-75
2022/11/01 11:30:52;;;;;;;;;;;14.20;92.00;;;;;;5038355;28;19974;-71
2022/11/01 11:33:19;;;;;;;;;;;14.20;92.00;;;;;;5053711;28;19990;-75
2022/11/01 11:35:56;;;;;;;;;;;14.10;92.30;;;;;;5036502;28;20012;-74
2022/11/01 11:38:39;;;;;;;;;;;14.00;92.30;;;;;;5035638;28;19932;-75
2022/11/01 11:41:08;;;;;;;;;;;13.90;92.30;;;;;;5053414;28;20260;-76
2022/11/01 11:43:36;;;;;;;;;;;13.90;92.50;;;;;;5036067;28;20359;-75
2022/11/01 11:46:11;;;;;;;;;;;13.90;92.30;;;;;;5043820;28;19919;-76
2022/11/01 11:48:47;;;;;;;;;;;13.80;92.30;;;;;;5054112;28;19913;-76
2022/11/01 11:51:14;;;;;;;;;;;13.80;92.30;;;;;;5034650;28;19928;-76
2022/11/01 11:53:41;;;;;;;;;;;13.70;92.30;;;;;;5035886;28;19916;-77
2022/11/01 11:56:08;;;;;;;;;;;13.70;92.30;;;;;;5034578;28;19909;-76
2022/11/01 11:58:34;;;;;;;;;;;13.70;92.30;;;;;;5037899;28;20585;-75
2022/11/01 12:01:06;;;;;;;;;;;13.60;92.40;;;;;;5033703;28;19919;-75
2022/11/01 12:03:50;;;;;;;;;;;13.60;92.70;;;;;;5044769;28;19959;-74
2022/11/01 12:06:19;;;;;;;;;;;13.60;92.40;;;;;;5047970;28;19966;-76
2022/11/01 12:08:46;;;;;;;;;;;13.50;92.70;;;;;;5052818;28;19919;-73
2022/11/01 12:11:12;;;;;;;;;;;13.50;93.10;;;;;;5034482;28;19979;-77
2022/11/01 12:13:44;;;;;;;;;;;13.50;92.80;;;;;;5035174;28;20368;-77
2022/11/01 12:16:16;;;;;;;;;;;13.50;92.90;;;;;;5053328;28;20034;-76
2022/11/01 12:18:47;;;;;;;;;;;13.40;92.90;;;;;;5052998;28;19919;-75
2022/11/01 12:21:18;;;;;;;;;;;13.40;93.00;;;;;;5052942;28;19912;-77
2022/11/01 12:23:45;;;;;;;;;;;13.50;92.80;;;;;;5053233;28;19909;-77
2022/11/01 12:26:14;;;;;;;;;;;13.50;92.80;;;;;;5051367;28;19929;-77
2022/11/01 12:28:47;;;;;;;;;;;13.50;92.80;;;;;;5052002;28;19917;-76
2022/11/01 12:31:16;;;;;;;;;;;13.50;93.00;;;;;;5054146;28;20375;-79
2022/11/01 12:34:05;;;;;;;;;;;13.50;92.90;;;;;;5048176;28;20516;-77
2022/11/01 12:36:35;;;;;;;;;;;13.50;93.10;;;;;;5033842;28;19921;-76
2022/11/01 12:39:18;;;;;;;;;;;13.50;93.10;;;;;;5037661;28;19917;-77
2022/11/01 12:41:51;;;;;;;;;;;13.50;93.30;;;;;;5053774;28;19948;-76
2022/11/01 12:44:18;;;;;;;;;;;13.50;93.20;;;;;;5052773;28;19917;-75
2022/11/01 12:46:45;;;;;;;;;;;13.50;93.40;;;;;;5053681;28;19916;-77
2022/11/01 12:49:14;;;;;;;;;;;13.40;93.30;;;;;;5051875;28;19987;-76
2022/11/01 12:51:47;;;;;;;;;;;13.40;93.30;;;;;;5053855;28;19916;-77
2022/11/01 12:54:26;;;;;;;;;;;13.30;93.50;;;;;;5051616;28;19924;-76
2022/11/01 12:56:54;;;;;;;;;;;13.30;93.30;;;;;;5051353;28;19920;-77
2022/11/01 12:59:24;;;;;;;;;;;13.30;93.40;;;;;;5051685;28;19966;-77
2022/11/01 13:02:08;;;;;;;;;;;13.30;93.50;;;;;;5042144;28;19913;-78
2022/11/01 13:04:37;;;;;;;;;;;13.30;93.20;;;;;;5047867;28;19929;-78
2022/11/01 13:07:09;;;;;;;;;;;13.40;93.20;;;;;;5051997;28;19913;-78
2022/11/01 13:09:48;;;;;;;;;;;13.40;93.00;;;;;;5052146;28;19966;-77
2022/11/01 13:12:27;;;;;;;;;;;13.30;93.10;;;;;;5053837;28;19917;-78
2022/11/01 13:15:02;;;;;;;;;;;13.30;93.20;;;;;;5052572;28;19920;-75
2022/11/01 13:17:40;;;;;;;;;;;13.20;93.40;;;;;;5054097;28;19935;-72
2022/11/01 13:20:24;;;;;;;;;;;13.20;93.40;;;;;;5050179;28;19921;-71
2022/11/01 13:23:09;;;;;;;;;;;13.10;93.20;;;;;;5052815;28;20334;-70
2022/11/01 13:25:50;;;;;;;;;;;13.10;93.10;;;;;;5052963;28;19920;-70
2022/11/01 13:28:29;;;;;;;;;;;13.10;93.10;;;;;;5049035;28;20352;-68
2022/11/01 13:31:29;;;;;;;;;;;13.00;93.10;;;;;;5055982;28;19961;-73
2022/11/01 13:33:55;;;;;;;;;;;13.00;93.20;;;;;;5008401;28;20341;-71
2022/11/01 13:36:31;;;;;;;;;;;12.90;93.10;;;;;;5052560;28;19913;-72
2022/11/01 13:39:20;;;;;;;;;;;12.90;93.30;;;;;;5050016;28;19955;-71
2022/11/01 13:41:47;;;;;;;;;;;12.80;93.40;;;;;;5033208;28;19909;-72
2022/11/01 13:44:18;;;;;;;;;;;12.80;93.20;;;;;;5038873;28;19913;-70
2022/11/01 13:46:57;;;;;;;;;;;12.80;93.20;;;;;;5053271;28;20354;-70
2022/11/01 13:49:32;;;;;;;;;;;12.80;93.10;;;;;;5052117;28;20003;-71
2022/11/01 13:52:00;;;;;;;;;;;12.80;92.70;;;;;;5045527;28;19917;-69
2022/11/01 13:54:29;;;;;;;;;;;12.80;92.60;;;;;;5036340;28;20039;-72
2022/11/01 13:56:58;;;;;;;;;;;12.80;92.10;;;;;;5029387;28;20287;-71
2022/11/01 13:59:32;;;;;;;;;;;12.80;92.40;;;;;;5041699;28;20020;-75
2022/11/01 14:02:25;;;;;;;;;;;12.80;92.40;;;;;;5052659;28;20329;-71
2022/11/01 14:05:11;;;;;;;;;;;12.70;92.20;;;;;;5049927;28;19959;-73
2022/11/01 14:07:44;;;;;;;;;;;12.70;91.90;;;;;;5051750;28;19916;-72
2022/11/01 14:10:10;;;;;;;;;;;12.60;92.00;;;;;;5051620;28;20004;-70
2022/11/01 14:12:37;;;;;;;;;;;12.50;92.00;;;;;;5052836;28;19974;-71
2022/11/01 14:15:15;;;;;;;;;;;12.50;92.10;;;;;;5051531;28;20414;-70
2022/11/01 14:17:51;;;;;;;;;;;12.50;92.10;;;;;;5052711;28;20322;-69
2022/11/01 14:20:27;;;;;;;;;;;12.50;91.30;;;;;;5038122;28;20010;-72
2022/11/01 14:22:54;;;;;;;;;;;12.50;91.20;;;;;;5051751;28;19913;-70
2022/11/01 14:25:31;;;;;;;;;;;12.50;91.30;;;;;;5051038;28;20000;-70
2022/11/01 14:28:16;;;;;;;;;;;12.40;91.20;;;;;;5032277;28;19925;-72
2022/11/01 14:30:52;;;;;;;;;;;12.40;91.30;;;;;;5050422;28;20354;-70
2022/11/01 14:33:20;;;;;;;;;;;12.30;91.20;;;;;;5052290;28;20330;-70
2022/11/01 14:35:51;;;;;;;;;;;12.40;91.10;;;;;;5055070;28;20007;-73
2022/11/01 14:38:21;;;;;;;;;;;12.30;90.70;;;;;;5052306;28;19908;-70
2022/11/01 14:40:55;;;;;;;;;;;12.30;90.80;;;;;;5051172;28;19927;-70
2022/11/01 14:43:25;;;;;;;;;;;12.30;91.00;;;;;;5052329;28;20336;-70